createdAt,value
2017-08-29T00:02:23.732Z,99.90
2017-08-29T00:04:51.305Z,99.90
2017-08-29T00:07:18.865Z,99.90
2017-08-29T00:09:46.403Z,99.90
2017-08-29T00:12:13.972Z,99.90
2017-08-29T00:14:41.505Z,99.90
2017-08-29T00:17:09.114Z,99.90
2017-08-29T00:19:36.648Z,99.90
2017-08-29T00:22:04.222Z,99.90
2017-08-29T00:24:31.768Z,99.90
2017-08-29T00:26:59.311Z,99.90
2017-08-29T00:29:26.871Z,99.90
2017-08-29T00:31:54.421Z,99.90
2017-08-29T00:34:21.990Z,99.90
2017-08-29T00:36:50.529Z,99.90
2017-08-29T00:39:18.092Z,99.90
2017-08-29T00:41:45.625Z,99.90
2017-08-29T00:44:13.165Z,99.90
2017-08-29T00:46:40.761Z,99.90
2017-08-29T00:49:08.301Z,99.90
2017-08-29T00:51:35.898Z,99.90
2017-08-29T00:54:03.469Z,99.90
2017-08-29T00:56:31.034Z,99.90
2017-08-29T00:58:58.589Z,99.90
2017-08-29T01:01:26.151Z,99.90
2017-08-29T01:03:53.710Z,99.90
2017-08-29T01:06:21.275Z,99.90
2017-08-29T01:08:48.855Z,99.90
2017-08-29T01:11:16.396Z,99.90
2017-08-29T01:13:43.957Z,99.90
2017-08-29T01:16:11.522Z,99.90
2017-08-29T01:18:39.108Z,99.90
2017-08-29T01:21:06.651Z,99.90
2017-08-29T01:23:34.217Z,99.90
2017-08-29T01:26:01.784Z,99.90
2017-08-29T01:28:29.321Z,99.90
2017-08-29T01:30:56.917Z,99.90
2017-08-29T01:33:24.489Z,99.90
2017-08-29T01:35:52.044Z,99.90
2017-08-29T01:38:19.618Z,99.90
2017-08-29T01:40:47.170Z,99.90
2017-08-29T01:43:14.760Z,99.90
2017-08-29T01:45:42.322Z,99.90
2017-08-29T01:48:09.875Z,99.90
2017-08-29T01:50:37.413Z,99.90
2017-08-29T01:53:04.976Z,99.90
2017-08-29T01:55:32.552Z,99.90
2017-08-29T01:58:00.108Z,99.90
2017-08-29T02:00:27.682Z,99.90
2017-08-29T02:02:55.229Z,99.90
2017-08-29T02:05:22.797Z,99.90
2017-08-29T02:07:50.350Z,99.90
2017-08-29T02:10:17.934Z,99.90
2017-08-29T02:12:45.498Z,99.90
2017-08-29T02:15:13.079Z,99.90
2017-08-29T02:17:40.650Z,99.90
2017-08-29T02:20:08.209Z,99.90
2017-08-29T02:22:35.777Z,99.90
2017-08-29T02:25:03.365Z,99.90
2017-08-29T02:27:30.930Z,99.90
2017-08-29T02:29:58.493Z,99.90
2017-08-29T02:32:26.042Z,99.90
2017-08-29T02:34:53.606Z,99.90
2017-08-29T02:37:21.197Z,99.90
2017-08-29T02:39:48.734Z,99.90
2017-08-29T02:42:16.302Z,99.90
2017-08-29T02:44:43.838Z,99.90
2017-08-29T02:47:11.409Z,99.90
2017-08-29T02:49:38.953Z,99.90
2017-08-29T02:52:06.527Z,99.90
2017-08-29T02:54:34.066Z,99.90
2017-08-29T02:57:01.638Z,99.90
2017-08-29T02:59:29.178Z,99.90
2017-08-29T03:01:56.726Z,99.90
2017-08-29T03:04:24.278Z,99.90
2017-08-29T03:06:51.834Z,99.90
2017-08-29T03:09:19.451Z,99.90
2017-08-29T03:11:46.992Z,99.90
2017-08-29T03:14:14.549Z,99.90
2017-08-29T03:16:42.084Z,99.90
2017-08-29T03:19:09.633Z,99.90
2017-08-29T03:21:37.196Z,99.90
2017-08-29T03:24:04.754Z,99.90
2017-08-29T03:26:32.295Z,99.90
2017-08-29T03:28:59.867Z,99.90
2017-08-29T03:31:27.437Z,99.90
2017-08-29T03:33:55.536Z,99.90
2017-08-29T03:36:23.114Z,99.90
2017-08-29T03:38:50.734Z,99.90
2017-08-29T03:41:18.278Z,99.90
2017-08-29T03:43:45.838Z,99.90
2017-08-29T03:46:13.398Z,99.90
2017-08-29T03:48:40.958Z,99.90
2017-08-29T03:51:08.502Z,99.90
2017-08-29T03:53:36.088Z,99.90
2017-08-29T03:56:03.628Z,99.90
2017-08-29T03:58:31.227Z,99.90
2017-08-29T04:00:58.786Z,99.90
2017-08-29T04:03:26.321Z,99.90
2017-08-29T04:05:53.879Z,99.90
2017-08-29T04:08:21.425Z,99.90
2017-08-29T04:10:49.394Z,99.90
2017-08-29T04:13:16.940Z,99.90
2017-08-29T04:15:44.500Z,99.90
2017-08-29T04:18:12.056Z,99.90
2017-08-29T04:20:39.588Z,99.90
2017-08-29T04:23:07.133Z,99.90
2017-08-29T04:25:34.661Z,99.90
2017-08-29T04:28:02.225Z,99.90
2017-08-29T04:30:29.774Z,99.90
2017-08-29T04:32:57.342Z,99.90
2017-08-29T04:35:24.881Z,99.90
2017-08-29T04:37:52.423Z,99.90
2017-08-29T04:40:19.989Z,99.90
2017-08-29T04:42:47.578Z,99.90
2017-08-29T04:45:15.138Z,99.90
2017-08-29T04:47:42.701Z,99.90
2017-08-29T04:50:10.248Z,99.90
2017-08-29T04:52:37.802Z,99.90
2017-08-29T04:55:05.370Z,99.90
2017-08-29T04:57:32.930Z,99.90
2017-08-29T05:00:00.476Z,99.90
2017-08-29T05:02:28.072Z,99.90
2017-08-29T05:04:55.606Z,99.90
2017-08-29T05:07:23.150Z,99.90
2017-08-29T05:09:50.724Z,99.90
2017-08-29T05:12:18.285Z,99.90
2017-08-29T05:14:45.817Z,99.90
2017-08-29T05:17:13.360Z,99.90
2017-08-29T05:19:40.929Z,99.90
2017-08-29T05:22:08.481Z,99.90
2017-08-29T05:24:36.037Z,99.90
2017-08-29T05:27:03.575Z,99.90
2017-08-29T05:29:31.117Z,99.90
2017-08-29T05:31:58.691Z,99.90
2017-08-29T05:34:26.260Z,99.90
2017-08-29T05:36:53.825Z,99.90
2017-08-29T05:39:21.354Z,99.90
2017-08-29T05:41:48.914Z,99.90
2017-08-29T05:44:16.448Z,99.90
2017-08-29T05:46:44.017Z,99.90
2017-08-29T05:49:12.319Z,99.90
2017-08-29T05:51:39.861Z,99.90
2017-08-29T05:54:07.409Z,99.90
2017-08-29T05:56:34.957Z,99.90
2017-08-29T05:59:02.516Z,99.90
2017-08-29T06:01:30.073Z,99.90
2017-08-29T06:03:57.632Z,99.90
2017-08-29T06:06:25.228Z,99.90
2017-08-29T06:08:52.781Z,99.90
2017-08-29T06:11:20.344Z,99.90
2017-08-29T06:13:47.927Z,99.90
2017-08-29T06:16:15.496Z,99.90
2017-08-29T06:18:43.055Z,99.90
2017-08-29T06:21:10.708Z,99.90
2017-08-29T06:23:38.272Z,99.90
2017-08-29T06:26:05.836Z,99.90
2017-08-29T06:28:33.392Z,99.90
2017-08-29T06:31:00.957Z,99.90
2017-08-29T06:33:28.545Z,99.90
2017-08-29T06:35:56.097Z,99.90
2017-08-29T06:38:23.657Z,99.90
2017-08-29T06:40:51.185Z,99.90
2017-08-29T06:43:18.745Z,99.90
2017-08-29T06:45:46.286Z,99.90
2017-08-29T06:48:13.838Z,99.90
2017-08-29T06:50:41.381Z,99.90
2017-08-29T06:53:08.945Z,99.90
2017-08-29T06:55:36.476Z,99.90
2017-08-29T06:58:04.010Z,99.90
2017-08-29T07:00:31.626Z,99.90
2017-08-29T07:02:59.163Z,99.90
2017-08-29T07:05:26.721Z,98.20
2017-08-29T07:07:54.260Z,98.40
2017-08-29T07:10:21.817Z,98.70
2017-08-29T07:12:49.361Z,98.40
2017-08-29T07:15:16.912Z,96.40
2017-08-29T07:17:44.443Z,95.20
2017-08-29T07:20:11.984Z,96.60
2017-08-29T07:22:39.541Z,95.10
2017-08-29T07:25:07.104Z,93.80
2017-08-29T07:27:34.664Z,94.10
2017-08-29T07:30:02.224Z,94.20
2017-08-29T07:32:29.761Z,92.00
2017-08-29T07:34:57.314Z,93.90
2017-08-29T07:37:24.849Z,91.90
2017-08-29T07:39:52.371Z,92.40
2017-08-29T07:42:19.929Z,91.90
2017-08-29T07:44:47.469Z,90.60
2017-08-29T07:47:15.025Z,84.50
2017-08-29T07:49:42.595Z,81.70
2017-08-29T07:52:10.157Z,77.20
2017-08-29T07:54:37.701Z,80.80
2017-08-29T07:57:05.289Z,77.70
2017-08-29T07:59:32.864Z,74.80
2017-08-29T08:02:00.422Z,76.80
2017-08-29T08:04:28.748Z,76.70
2017-08-29T08:06:56.283Z,76.50
2017-08-29T08:09:23.837Z,74.80
2017-08-29T08:11:51.394Z,72.60
2017-08-29T08:14:18.940Z,72.00
2017-08-29T08:16:46.501Z,71.90
2017-08-29T08:19:14.802Z,65.30
2017-08-29T08:21:42.349Z,65.30
2017-08-29T08:24:09.921Z,65.30
2017-08-29T08:26:37.461Z,66.90
2017-08-29T08:29:05.025Z,67.90
2017-08-29T08:31:32.582Z,69.80
2017-08-29T08:34:00.883Z,63.80
2017-08-29T08:36:28.442Z,63.60
2017-08-29T08:38:55.988Z,63.10
2017-08-29T08:41:23.533Z,63.50
2017-08-29T08:43:51.090Z,62.40
2017-08-29T08:46:18.648Z,64.60
2017-08-29T08:48:46.962Z,65.20
2017-08-29T08:51:14.505Z,65.20
2017-08-29T08:53:42.044Z,65.50
2017-08-29T08:56:09.600Z,63.30
2017-08-29T08:58:37.142Z,65.40
2017-08-29T09:01:04.682Z,63.80
2017-08-29T09:03:32.248Z,63.20
2017-08-29T09:05:59.783Z,65.70
2017-08-29T09:08:27.346Z,63.60
2017-08-29T09:10:54.957Z,63.90
2017-08-29T09:13:22.520Z,64.30
2017-08-29T09:15:50.059Z,63.40
2017-08-29T09:18:18.221Z,61.90
2017-08-29T09:20:45.784Z,57.30
2017-08-29T09:23:13.319Z,60.10
2017-08-29T09:25:41.400Z,55.20
2017-08-29T09:28:08.949Z,55.60
2017-08-29T09:30:36.490Z,55.80
2017-08-29T09:33:04.077Z,55.60
2017-08-29T09:35:31.618Z,55.50
2017-08-29T09:37:59.168Z,55.40
2017-08-29T09:40:26.701Z,55.80
2017-08-29T09:42:54.859Z,53.80
2017-08-29T09:45:22.385Z,52.60
2017-08-29T09:47:49.941Z,51.00
2017-08-29T09:50:17.494Z,48.40
2017-08-29T09:52:45.029Z,49.10
2017-08-29T09:55:12.588Z,49.50
2017-08-29T09:57:40.120Z,50.10
2017-08-29T10:00:07.679Z,47.70
2017-08-29T10:02:35.209Z,48.20
2017-08-29T10:05:02.810Z,46.00
2017-08-29T10:07:30.377Z,46.40
2017-08-29T10:09:57.918Z,46.50
2017-08-29T10:12:25.477Z,46.20
2017-08-29T10:14:53.103Z,43.20
2017-08-29T10:17:20.645Z,42.20
2017-08-29T10:19:49.185Z,44.00
2017-08-29T10:22:16.743Z,40.90
2017-08-29T10:24:44.266Z,40.20
2017-08-29T10:27:11.802Z,38.40
2017-08-29T10:29:39.352Z,39.30
2017-08-29T10:32:06.875Z,41.60
2017-08-29T10:34:34.437Z,42.10
2017-08-29T10:37:01.979Z,39.90
2017-08-29T10:39:29.517Z,41.50
2017-08-29T10:41:57.038Z,41.60
2017-08-29T10:44:24.593Z,41.70
2017-08-29T10:46:52.145Z,39.40
2017-08-29T10:49:19.692Z,40.70
2017-08-29T10:51:47.218Z,39.50
2017-08-29T10:54:14.770Z,40.30
2017-08-29T10:56:42.338Z,41.40
2017-08-29T10:59:09.876Z,43.70
2017-08-29T11:01:38.219Z,47.80
2017-08-29T11:04:05.764Z,47.80
2017-08-29T11:06:33.394Z,47.50
2017-08-29T11:09:00.941Z,48.90
2017-08-29T11:11:28.521Z,49.40
2017-08-29T11:13:56.055Z,49.40
2017-08-29T11:16:23.896Z,50.80
2017-08-29T11:18:51.450Z,50.50
2017-08-29T11:21:18.970Z,52.40
2017-08-29T11:23:46.519Z,50.70
2017-08-29T11:26:14.058Z,51.50
2017-08-29T11:28:41.618Z,48.80
2017-08-29T11:31:09.146Z,49.80
2017-08-29T11:33:36.701Z,51.20
2017-08-29T11:36:04.234Z,53.70
2017-08-29T11:38:31.771Z,52.70
2017-08-29T11:40:59.326Z,54.10
2017-08-29T11:43:26.862Z,52.90
2017-08-29T11:45:54.409Z,52.40
2017-08-29T11:48:21.945Z,52.00
2017-08-29T11:50:49.516Z,53.70
2017-08-29T11:53:17.048Z,54.40
2017-08-29T11:55:44.831Z,52.50
2017-08-29T11:58:12.930Z,52.20
2017-08-29T12:00:40.479Z,53.40
2017-08-29T12:03:08.112Z,52.00
2017-08-29T12:05:35.758Z,52.20
2017-08-29T12:08:03.398Z,51.90
2017-08-29T12:10:30.934Z,49.90
2017-08-29T12:12:58.504Z,51.20
2017-08-29T12:15:26.073Z,52.60
2017-08-29T12:17:53.656Z,51.80
2017-08-29T12:20:21.194Z,51.60
2017-08-29T12:22:48.752Z,54.00
2017-08-29T12:25:16.308Z,54.00
2017-08-29T12:27:43.836Z,54.40
2017-08-29T12:30:11.396Z,51.80
2017-08-29T12:32:38.939Z,51.40
2017-08-29T12:35:06.481Z,54.60
2017-08-29T12:37:34.018Z,51.80
2017-08-29T12:40:01.573Z,50.30
2017-08-29T12:42:29.133Z,50.60
2017-08-29T12:44:56.674Z,48.20
2017-08-29T12:47:24.279Z,51.00
2017-08-29T12:49:51.832Z,52.30
2017-08-29T12:52:19.368Z,52.60
2017-08-29T12:54:46.939Z,51.30
2017-08-29T12:57:14.492Z,50.90
2017-08-29T12:59:42.015Z,51.60
2017-08-29T13:02:09.544Z,50.50
2017-08-29T13:04:37.117Z,50.40
2017-08-29T13:07:04.701Z,49.70
2017-08-29T13:09:32.233Z,50.90
2017-08-29T13:11:59.779Z,48.90
2017-08-29T13:14:27.322Z,48.60
2017-08-29T13:16:54.861Z,50.30
2017-08-29T13:19:22.421Z,50.10
2017-08-29T13:21:49.957Z,49.00
2017-08-29T13:24:17.489Z,50.40
2017-08-29T13:26:45.108Z,52.80
2017-08-29T13:29:12.638Z,50.70
2017-08-29T13:31:40.180Z,52.30
2017-08-29T13:34:07.761Z,51.90
2017-08-29T13:36:35.321Z,50.00
2017-08-29T13:39:02.984Z,53.60
2017-08-29T13:41:31.541Z,52.20
2017-08-29T13:43:59.076Z,52.10
2017-08-29T13:46:26.624Z,51.60
2017-08-29T13:48:54.902Z,52.00
2017-08-29T13:51:22.451Z,53.10
2017-08-29T13:53:50.035Z,50.90
2017-08-29T13:56:17.773Z,52.00
2017-08-29T13:58:45.340Z,52.80
2017-08-29T14:01:13.750Z,51.90
2017-08-29T14:03:41.572Z,52.10
2017-08-29T14:06:09.124Z,53.40
2017-08-29T14:08:36.734Z,52.20
2017-08-29T14:11:04.357Z,52.40
2017-08-29T14:13:31.890Z,50.30
2017-08-29T14:15:59.438Z,51.00
2017-08-29T14:18:27.002Z,50.20
2017-08-29T14:20:54.550Z,50.60
2017-08-29T14:23:22.101Z,50.60
2017-08-29T14:25:49.633Z,50.80
2017-08-29T14:28:17.191Z,51.50
2017-08-29T14:30:44.732Z,50.80
2017-08-29T14:33:12.425Z,52.50
2017-08-29T14:35:39.972Z,49.40
2017-08-29T14:38:07.506Z,49.70
2017-08-29T14:40:35.273Z,51.50
2017-08-29T14:43:02.939Z,49.60
2017-08-29T14:45:30.517Z,50.10
2017-08-29T14:48:10.013Z,48.90
2017-08-29T14:50:37.572Z,49.10
2017-08-29T14:53:05.130Z,49.70
2017-08-29T14:55:32.653Z,51.20
2017-08-29T14:58:00.208Z,49.70
2017-08-29T15:00:27.743Z,49.00
2017-08-29T15:02:55.307Z,49.30
2017-08-29T15:05:22.844Z,50.20
2017-08-29T15:07:50.441Z,50.60
2017-08-29T15:10:17.979Z,50.40
2017-08-29T15:12:45.517Z,50.40
2017-08-29T15:15:13.079Z,50.60
2017-08-29T15:17:40.619Z,50.50
2017-08-29T15:20:08.265Z,50.60
2017-08-29T15:22:35.805Z,51.60
2017-08-29T15:25:03.875Z,50.70
2017-08-29T15:27:31.425Z,52.10
2017-08-29T15:29:58.978Z,50.80
2017-08-29T15:32:26.523Z,50.50
2017-08-29T15:34:54.089Z,51.10
2017-08-29T15:37:21.648Z,53.40
2017-08-29T15:39:49.180Z,51.70
2017-08-29T15:42:16.747Z,52.50
2017-08-29T15:44:45.105Z,51.80
2017-08-29T15:47:13.417Z,51.40
2017-08-29T15:49:40.952Z,52.10
2017-08-29T15:52:08.521Z,51.30
2017-08-29T15:54:36.069Z,51.80
2017-08-29T15:57:03.617Z,52.10
2017-08-29T15:59:31.169Z,53.40
2017-08-29T16:01:58.760Z,53.20
2017-08-29T16:04:26.292Z,52.50
2017-08-29T16:06:53.831Z,52.10
2017-08-29T16:09:21.389Z,52.40
2017-08-29T16:11:48.941Z,53.30
2017-08-29T16:14:16.494Z,54.00
2017-08-29T16:16:44.017Z,53.30
2017-08-29T16:19:11.577Z,54.50
2017-08-29T16:21:39.147Z,54.20
2017-08-29T16:24:06.689Z,54.00
2017-08-29T16:26:35.173Z,53.90
2017-08-29T16:29:02.701Z,56.10
2017-08-29T16:31:30.228Z,54.40
2017-08-29T16:33:57.797Z,54.10
2017-08-29T16:36:25.318Z,54.90
2017-08-29T16:38:52.860Z,54.90
2017-08-29T16:41:20.439Z,55.70
2017-08-29T16:43:48.002Z,54.80
2017-08-29T16:46:15.579Z,55.20
2017-08-29T16:48:43.138Z,55.40
2017-08-29T16:51:10.669Z,55.30
2017-08-29T16:53:38.217Z,53.90
2017-08-29T16:56:06.509Z,55.30
2017-08-29T16:58:34.065Z,55.20
2017-08-29T17:01:01.590Z,54.70
2017-08-29T17:03:29.150Z,54.80
2017-08-29T17:05:56.695Z,55.40
2017-08-29T17:08:24.236Z,56.70
2017-08-29T17:10:51.775Z,56.80
2017-08-29T17:13:19.316Z,56.50
2017-08-29T17:15:46.862Z,57.20
2017-08-29T17:18:14.402Z,57.60
2017-08-29T17:20:41.933Z,58.00
2017-08-29T17:23:09.493Z,57.80
2017-08-29T17:25:37.030Z,58.00
2017-08-29T17:28:04.809Z,58.20
2017-08-29T17:30:32.370Z,58.10
2017-08-29T17:32:59.974Z,58.70
2017-08-29T17:35:29.151Z,58.40
2017-08-29T17:37:56.785Z,58.30
2017-08-29T17:40:24.797Z,57.90
2017-08-29T17:42:52.330Z,57.90
2017-08-29T17:45:19.864Z,58.10
2017-08-29T17:47:47.418Z,58.00
2017-08-29T17:50:14.948Z,58.40
2017-08-29T17:52:42.497Z,58.70
2017-08-29T17:55:10.053Z,59.30
2017-08-29T17:57:37.620Z,59.10
2017-08-29T18:00:05.874Z,59.30
2017-08-29T18:02:33.427Z,59.60
2017-08-29T18:05:00.965Z,58.70
2017-08-29T18:07:28.529Z,58.80
2017-08-29T18:09:56.098Z,59.10
2017-08-29T18:12:23.622Z,58.50
2017-08-29T18:14:51.163Z,58.50
2017-08-29T18:17:18.810Z,58.40
2017-08-29T18:19:46.369Z,58.80
2017-08-29T18:22:13.994Z,58.30
2017-08-29T18:24:41.537Z,58.60
2017-08-29T18:27:09.114Z,58.30
2017-08-29T18:29:36.685Z,58.20
2017-08-29T18:32:04.225Z,58.20
2017-08-29T18:34:31.764Z,58.10
2017-08-29T18:36:59.382Z,58.10
2017-08-29T18:39:26.941Z,58.90
2017-08-29T18:41:54.493Z,58.80
2017-08-29T18:44:22.021Z,59.10
2017-08-29T18:46:49.590Z,58.80
2017-08-29T18:49:17.602Z,60.90
2017-08-29T18:51:45.149Z,59.60
2017-08-29T18:54:12.698Z,60.30
2017-08-29T18:56:40.253Z,60.40
2017-08-29T18:59:07.781Z,60.40
2017-08-29T19:01:35.326Z,60.90
2017-08-29T19:04:02.857Z,60.90
2017-08-29T19:06:30.383Z,61.00
2017-08-29T19:08:57.939Z,61.10
2017-08-29T19:11:26.068Z,61.70
2017-08-29T19:13:53.649Z,62.10
2017-08-29T19:16:21.190Z,62.70
2017-08-29T19:18:48.779Z,62.60
2017-08-29T19:21:16.327Z,62.90
2017-08-29T19:23:43.863Z,63.10
2017-08-29T19:26:12.294Z,64.30
2017-08-29T19:28:40.521Z,63.60
2017-08-29T19:31:08.094Z,63.80
2017-08-29T19:33:35.628Z,64.50
2017-08-29T19:36:03.176Z,65.00
2017-08-29T19:38:30.730Z,64.50
2017-08-29T19:40:58.371Z,65.00
2017-08-29T19:43:25.914Z,66.30
2017-08-29T19:45:53.460Z,67.20
2017-08-29T19:48:21.044Z,67.00
2017-08-29T19:50:48.609Z,69.20
2017-08-29T19:53:16.139Z,68.00
2017-08-29T19:55:43.689Z,70.40
2017-08-29T19:58:11.239Z,68.50
2017-08-29T20:00:38.815Z,69.40
2017-08-29T20:03:06.373Z,74.00
2017-08-29T20:05:33.925Z,70.60
2017-08-29T20:08:01.494Z,72.90
2017-08-29T20:10:29.033Z,71.60
2017-08-29T20:12:56.642Z,71.90
2017-08-29T20:15:24.182Z,75.00
2017-08-29T20:17:51.738Z,73.70
2017-08-29T20:20:19.276Z,74.70
2017-08-29T20:22:46.833Z,77.40
2017-08-29T20:25:14.374Z,74.40
2017-08-29T20:27:42.535Z,75.80
2017-08-29T20:30:10.071Z,78.20
2017-08-29T20:32:37.601Z,76.30
2017-08-29T20:35:05.916Z,75.00
2017-08-29T20:37:33.448Z,75.00
2017-08-29T20:40:00.986Z,76.40
2017-08-29T20:42:28.541Z,75.70
2017-08-29T20:44:56.112Z,80.70
2017-08-29T20:47:23.718Z,78.90
2017-08-29T20:49:51.275Z,78.20
2017-08-29T20:52:18.809Z,76.50
2017-08-29T20:54:46.364Z,80.00
2017-08-29T20:57:13.969Z,76.50
2017-08-29T20:59:41.532Z,75.30
2017-08-29T21:02:09.078Z,74.40
2017-08-29T21:04:36.639Z,74.30
2017-08-29T21:07:04.205Z,74.10
2017-08-29T21:09:31.737Z,75.50
2017-08-29T21:11:59.293Z,76.00
2017-08-29T21:14:27.585Z,76.00
2017-08-29T21:16:55.213Z,76.00
2017-08-29T21:19:22.747Z,76.20
2017-08-29T21:21:51.045Z,79.10
2017-08-29T21:24:18.601Z,79.20
2017-08-29T21:26:46.133Z,80.70
2017-08-29T21:29:13.680Z,79.40
2017-08-29T21:31:41.785Z,79.50
2017-08-29T21:34:09.324Z,80.30
2017-08-29T21:36:37.259Z,81.80
2017-08-29T21:39:04.805Z,80.70
2017-08-29T21:41:32.353Z,82.70
2017-08-29T21:43:59.913Z,80.80
2017-08-29T21:46:27.727Z,80.50
2017-08-29T21:48:55.293Z,82.00
2017-08-29T21:51:22.824Z,83.70
2017-08-29T21:53:50.382Z,81.60
2017-08-29T21:56:17.909Z,83.10
2017-08-29T21:58:45.464Z,81.40
2017-08-29T22:01:13.026Z,82.30
2017-08-29T22:03:40.560Z,82.60
2017-08-29T22:06:08.106Z,82.40
2017-08-29T22:08:35.649Z,87.40
2017-08-29T22:11:03.205Z,86.00
2017-08-29T22:13:30.786Z,88.10
2017-08-29T22:15:58.351Z,90.30
2017-08-29T22:18:25.896Z,90.50
2017-08-29T22:20:53.432Z,88.80
2017-08-29T22:23:21.209Z,90.00
2017-08-29T22:25:48.741Z,87.80
2017-08-29T22:28:16.305Z,86.10
2017-08-29T22:30:43.849Z,87.30
2017-08-29T22:33:11.379Z,85.70
2017-08-29T22:35:39.134Z,87.40
2017-08-29T22:38:06.734Z,87.30
2017-08-29T22:40:34.300Z,87.80
2017-08-29T22:43:01.913Z,86.40
2017-08-29T22:45:29.457Z,86.80
2017-08-29T22:47:57.001Z,86.90
2017-08-29T22:50:24.547Z,85.60
2017-08-29T22:52:52.110Z,85.10
2017-08-29T22:55:19.680Z,85.30
2017-08-29T22:57:47.202Z,88.30
2017-08-29T23:00:14.730Z,86.30
2017-08-29T23:02:42.275Z,87.60
2017-08-29T23:05:09.802Z,86.10
2017-08-29T23:07:37.366Z,88.80
2017-08-29T23:10:04.889Z,90.60
2017-08-29T23:12:32.442Z,92.00
2017-08-29T23:15:00.001Z,92.80
2017-08-29T23:17:29.209Z,92.80
2017-08-29T23:19:56.754Z,93.10
2017-08-29T23:22:24.302Z,92.10
2017-08-29T23:24:51.862Z,91.60
2017-08-29T23:27:19.409Z,91.30
2017-08-29T23:29:46.943Z,91.10
2017-08-29T23:32:14.510Z,90.70
2017-08-29T23:34:42.037Z,90.60
2017-08-29T23:37:09.592Z,90.30
2017-08-29T23:39:37.141Z,90.30
2017-08-29T23:42:04.672Z,90.60
2017-08-29T23:44:32.221Z,91.00
2017-08-29T23:46:59.745Z,90.80
2017-08-29T23:49:27.279Z,90.80
2017-08-29T23:51:54.844Z,92.60
2017-08-29T23:54:22.382Z,93.30
2017-08-29T23:56:49.945Z,94.90
2017-08-29T23:59:17.473Z,95.50
